• Join FlightAware (Why Join?)
  • Login
  • US Flag 
06:04AM EDT


 

Airport Tracker/Info


-or-


 

Live Flight TrackerFlight Track Log ✈ IRO7601 ✈ 03-May-2013 ✈ KTVC - KGRR

Flight Track Log - Related Links

Times and Time Zones

All times are in EDT time to prevent confusion due to time zone crossing. See the IRO7601 flight status page for this flight to view local times or setup timezone preferences in your user account.

Time Position Orientation Groundspeed Altitude Reporting Facility
EDT Latitude Longitude Course Direction KTS MPH feet Rate Location/Type
07:25PM 44.7150 -85.5878 176° South 110 127 1,200  Level Minneapolis Center
07:27PM 44.6842 -85.5894 182° South 111 128 2,000 720 Climbing Minneapolis Center
07:28PM 44.6533 -85.5900 181° South 102 117 2,800 720 Climbing Minneapolis Center
07:29PM 44.6283 -85.5889 178° South 94 108 3,500 720 Climbing Minneapolis Center
07:30PM 44.5093 -85.5747 180° South  Level Estimated
07:30PM 44.6036 -85.5858 175° South 91 105 4,300  Level Minneapolis Center
07:31PM 44.4707 -85.5706 176° South  Level FlightAware Approximate
07:31PM 44.5794 -85.5828 175° South 89 102 5,000  Level Minneapolis Center
07:32PM 44.5544 -85.5808 177° South 90 104 5,700 660 Climbing Minneapolis Center
07:33PM 44.5283 -85.5811 180° South 92 106 6,400 600 Climbing Minneapolis Center
07:34PM 44.4969 -85.5806 179° South 94 108 7,000 240 Climbing Minneapolis Center
07:35PM 44.4611 -85.5783 177° South 118 136 7,000  Level Minneapolis Center
07:36PM 44.4200 -85.5783 180° South 141 162 7,000 -60 Level Minneapolis Center
07:37PM 44.3814 -85.5783 180° South 141 162 6,900  Descending Minneapolis Center
07:38PM 44.3433 -85.5761 178° South 138 159 7,000  Climbing Minneapolis Center
07:39PM 44.2981 -85.5744 178° South 136 157 7,000  Level Minneapolis Center
07:40PM 44.2603 -85.5725 178° South 136 157 7,000  Level Minneapolis Center
07:41PM 44.2133 -85.5706 178° South 140 161 7,000  Level Minneapolis Center
07:42PM 44.1747 -85.5669 176° South 139 160 7,000  Level Minneapolis Center
07:43PM 44.1369 -85.5664 179° South 138 159 7,000  Level Minneapolis Center
07:45PM 44.0675 -85.5664 180° South 137 158 7,000  Level Chicago Center
07:45PM 44.0564 -85.5656 177° South 136 157 7,000  Level Minneapolis Center
07:46PM 44.0258 -85.5644 179° South 136 157 7,000  Level Minneapolis Center
07:47PM 43.9797 -85.5639 180° South 138 159 7,000  Level Minneapolis Center
07:48PM 43.9408 -85.5622 178° South 139 160 7,000  Level Minneapolis Center
07:49PM 43.9033 -85.5625 180° South 137 158 7,000  Level Minneapolis Center
07:50PM 43.8644 -85.5603 178° South 138 159 7,000  Level Minneapolis Center
07:51PM 43.8253 -85.5572 177° South 140 161 7,000  Level Minneapolis Center
07:53PM 43.7781 -85.5561 179° South 142 163 7,000  Level Minneapolis Center
07:54PM 43.7394 -85.5536 177° South 141 162 7,000  Level Minneapolis Center
07:55PM 43.7000 -85.5519 178° South 140 161 7,000 -120 Level Minneapolis Center
07:56PM 43.6608 -85.5519 180° South 141 162 6,800 -300 Descending Minneapolis Center
07:57PM 43.6194 -85.5508 179° South 147 169 6,500 -360 Descending Minneapolis Center
07:58PM 43.5761 -85.5517 181° South 153 176 6,100 -420 Descending Minneapolis Center
07:59PM 43.5325 -85.5514 180° South 155 178 5,700 -420 Descending Minneapolis Center
08:00PM 43.4811 -85.5511 180° South 154 177 5,300 -360 Descending Minneapolis Center
08:01PM 43.4472 -85.5517 181° South 154 177 5,000 -420 Descending Minneapolis Center
08:02PM 43.3969 -85.5503 179° South 152 175 4,500 -480 Descending Minneapolis Center
08:03PM 43.3636 -85.5461 175° South 152 175 4,200 -420 Descending Chicago Center
08:04PM 43.3225 -85.5389 173° South 150 173 3,800 -360 Descending Chicago Center
08:05PM 43.2808 -85.5389 180° South 150 173 3,500 -360 Descending Chicago Center
08:06PM 43.2389 -85.5392 180° South 150 173 3,100 -360 Descending Chicago Center
08:07PM 43.1969 -85.5378 179° South 150 173 2,800 -300 Descending Chicago Center
08:08PM 43.1564 -85.5353 177° South 148 170 2,600 -120 Descending Chicago Center
08:09PM 43.1103 -85.5333 178° South 143 165 2,600  Level Chicago Center
08:10PM 43.0736 -85.5300 176° South 138 159 2,600 -60 Level Chicago Center
08:11PM 43.0367 -85.5275 177° South 135 155 2,500 -180 Descending Chicago Center
08:12PM 42.9983 -85.5328 186° South 135 155 2,300 -240 Descending Chicago Center
08:13PM 42.9578 -85.5333 181° South 139 160 2,100 -420 Descending Chicago Center
08:14PM 42.9175 -85.5258 172° South 143 165 1,500 -600 Descending Chicago Center